Temp: 4.4°C   Baro: 1017.3mb
  Wind: 0.0mph   Dir: NNW (342°)
  Rain: 0.0mm (0.0mm/hr)
  Solar: 0W/m2  Hum: 83%

Historic data

Bath Spa Weather Station Historical Data
Daily Summary for October 3, 2021 Units:  Metric    English   Both
Daily Weekly Monthly Yearly Custom
  High: Low: Average:
Temperature: 14.7 °C 7.7 °C 11.2 °C
Dew Point: 11.8 °C 7.3 °C 9.4 °C
Humidity: 94% 73% 87%
Wind Speed: 20.6km/h 0km/h 6.6km/h
Wind Gust: 33.8km/h - -
Wind- - WSW
Pressure: 1006.3 hPa 991.1 hPa -
Precipitation: 1.78 mm    
Historical Graphs
 
 
Tabular Data for October 3, 2021
Time Temperature Dew Point Pressure Wind Wind Speed Wind Gust Humidity Rainfall Rate (Hourly) solar
00:04 10.3 °C 9.6 °C 991.1 hPa West 0.6 km/h 4.8 km/h 92% 0.25 mm 0 W/m2
00:09 10.2 °C 9.5 °C 991.4 hPa West 0.8 km/h 4.8 km/h 92% 0 mm 0 W/m2
00:14 10.3 °C 9.6 °C 991.4 hPa West 4.3 km/h 8 km/h 92% 0 mm 0 W/m2
00:19 10.3 °C 9.6 °C 991.4 hPa West 2.7 km/h 9.7 km/h 92% 0 mm 0 W/m2
00:24 10.2 °C 9.5 °C 991.8 hPa West 7.2 km/h 12.9 km/h 92% 0 mm 0 W/m2
00:29 10.2 °C 9.4 °C 991.8 hPa West 4.7 km/h 9.7 km/h 92% 0 mm 0 W/m2
00:34 10.1 °C 9.4 °C 992.1 hPa West 3.9 km/h 9.7 km/h 92% 0 mm 0 W/m2
00:39 10 °C 9.3 °C 991.8 hPa West 1.4 km/h 8 km/h 92% 0 mm 0 W/m2
00:44 9.9 °C 9.3 °C 991.8 hPa West 0.3 km/h 3.2 km/h 92% 0 mm 0 W/m2
00:49 9.9 °C 9.2 °C 991.8 hPa Calm   3.2 km/h 92% 0 mm 0 W/m2
00:54 9.8 °C 9.1 °C 991.8 hPa West 0.6 km/h 3.2 km/h 92% 0 mm 0 W/m2
00:59 9.8 °C 9.1 °C 992.1 hPa West 0.8 km/h 3.2 km/h 92% 0 mm 0 W/m2
01:03 9.7 °C 9.1 °C 991.8 hPa West 0.3 km/h 4.8 km/h 92% 0 mm 0 W/m2
01:09 9.7 °C 9 °C 992.1 hPa West 0.6 km/h 3.2 km/h 92% 0 mm 0 W/m2
01:14 9.7 °C 9 °C 992.1 hPa West 2.1 km/h 4.8 km/h 92% 0 mm 0 W/m2
01:19 9.6 °C 8.9 °C 992.1 hPa West 2.1 km/h 3.2 km/h 92% 0 mm 0 W/m2
01:24 9.6 °C 8.9 °C 992.1 hPa West 0.3 km/h 4.8 km/h 92% 0 mm 0 W/m2
01:29 9.5 °C 8.8 °C 992.4 hPa West 0.3 km/h 3.2 km/h 92% 0 mm 0 W/m2
01:34 9.5 °C 8.8 °C 992.1 hPa West 0.3 km/h 3.2 km/h 92% 0 mm 0 W/m2
01:39 9.5 °C 8.8 °C 992.1 hPa Calm   1.6 km/h 92% 0 mm 0 W/m2
01:44 9.5 °C 8.8 °C 992.1 hPa West 1.1 km/h 3.2 km/h 92% 0 mm 0 W/m2
01:49 9.5 °C 8.8 °C 991.8 hPa Calm   3.2 km/h 92% 0 mm 0 W/m2
01:54 9.5 °C 8.8 °C 991.8 hPa Calm   1.6 km/h 92% 0 mm 0 W/m2
01:59 9.4 °C 8.7 °C 992.1 hPa Calm     92% 0 mm 0 W/m2
02:04 9.4 °C 8.7 °C 992.4 hPa Calm     92% 0 mm 0 W/m2
02:09 9.4 °C 8.7 °C 992.4 hPa Calm   1.6 km/h 92% 0 mm 0 W/m2
02:14 9.4 °C 8.7 °C 992.4 hPa Calm     92% 0 mm 0 W/m2
02:19 9.3 °C 8.7 °C 992.4 hPa Calm     92% 0.25 mm 0 W/m2
02:24 9.3 °C 8.6 °C 992.4 hPa Calm     92% 0.25 mm 0 W/m2
02:29 9.3 °C 8.6 °C 992.4 hPa West 0.3 km/h 3.2 km/h 92% 0.25 mm 0 W/m2
02:34 9.3 °C 8.6 °C 992.4 hPa Calm     92% 0.25 mm 0 W/m2
02:39 9.3 °C 8.7 °C 992.4 hPa Calm     93% 0.25 mm 0 W/m2
02:44 9.2 °C 8.6 °C 992.4 hPa West 0.6 km/h 3.2 km/h 93% 0.25 mm 0 W/m2
02:49 9.2 °C 8.6 °C 992.4 hPa Calm   3.2 km/h 92.6% 0.25 mm 0 W/m2
02:54 9.2 °C 8.6 °C 992.4 hPa West 0.6 km/h 3.2 km/h 92.6% 0.25 mm 0 W/m2
02:59 9.1 °C 8.5 °C 992.4 hPa West 1.9 km/h 4.8 km/h 93% 0.25 mm 0 W/m2
03:04 9.1 °C 8.5 °C 992.4 hPa West 2.6 km/h 8 km/h 93% 0.25 mm 0 W/m2
03:09 9 °C 8.4 °C 992.4 hPa West 1.3 km/h 6.4 km/h 93% 0.25 mm 0 W/m2
03:14 8.9 °C 8.3 °C 992.4 hPa Calm     93% 0.25 mm 0 W/m2
03:19 8.9 °C 8.3 °C 992.4 hPa Calm     93% 0.25 mm 0 W/m2
03:24 8.9 °C 8.3 °C 992.1 hPa Calm   1.6 km/h 93% 0 mm 0 W/m2
03:29 8.8 °C 8.2 °C 992.4 hPa Calm     93% 0 mm 0 W/m2
03:34 8.7 °C 8.1 °C 992.4 hPa Calm     93% 0 mm 0 W/m2
03:39 8.7 °C 8.1 °C 992.4 hPa Calm     93% 0 mm 0 W/m2
03:44 8.7 °C 8.1 °C 992.4 hPa West 0.6 km/h 3.2 km/h 93% 0 mm 0 W/m2
03:49 8.7 °C 8.1 °C 992.4 hPa West 2.4 km/h 4.8 km/h 93% 0 mm 0 W/m2
03:54 8.7 °C 8.1 °C 992.4 hPa West 2.7 km/h 4.8 km/h 93% 0 mm 0 W/m2
03:59 8.6 °C 8 °C 992.4 hPa West 3.9 km/h 6.4 km/h 93% 0 mm 0 W/m2
04:04 8.6 °C 8 °C 992.4 hPa West 4 km/h 6.4 km/h 93% 0 mm 0 W/m2
04:09 8.6 °C 8 °C 992.4 hPa West 3.1 km/h 4.8 km/h 93% 0 mm 0 W/m2
04:14 8.6 °C 8 °C 992.4 hPa West 2.6 km/h 4.8 km/h 93% 0 mm 0 W/m2
04:19 8.6 °C 7.9 °C 992.4 hPa West 3.9 km/h 6.4 km/h 93% 0 mm 0 W/m2
04:24 8.5 °C 7.9 °C 992.4 hPa West 3.7 km/h 6.4 km/h 93% 0 mm 0 W/m2
04:29 8.6 °C 8 °C 992.4 hPa West 2.7 km/h 4.8 km/h 93% 0 mm 0 W/m2
04:34 8.6 °C 8 °C 992.1 hPa West 1 km/h 4.8 km/h 93% 0 mm 0 W/m2
04:39 8.5 °C 7.9 °C 992.1 hPa West 1 km/h 4.8 km/h 93% 0 mm 0 W/m2
04:44 8.4 °C 7.8 °C 992.1 hPa West 1.3 km/h 3.2 km/h 93% 0 mm 0 W/m2
04:49 8.4 °C 7.8 °C 992.4 hPa Calm     93% 0 mm 0 W/m2
04:54 8.4 °C 7.8 °C 992.4 hPa Calm     93.2% 0 mm 0 W/m2
04:59 8.4 °C 7.9 °C 992.8 hPa Calm     93.8% 0 mm 0 W/m2
05:04 8.4 °C 8 °C 992.8 hPa West 0.3 km/h 1.6 km/h 94% 0 mm 0 W/m2
05:09 8.4 °C 8 °C 992.8 hPa West 0.3 km/h 3.2 km/h 94% 0 mm 0 W/m2
05:14 8.4 °C 8 °C 992.8 hPa West 0.3 km/h 3.2 km/h 94% 0 mm 0 W/m2
05:19 8.4 °C 8 °C 992.8 hPa West 2.3 km/h 4.8 km/h 94% 0 mm 0 W/m2
05:24 8.3 °C 7.9 °C 992.8 hPa West 0.3 km/h 4.8 km/h 94% 0 mm 0 W/m2
05:29 8.3 °C 7.7 °C 992.8 hPa West 1.9 km/h 4.8 km/h 93.2% 0 mm 0 W/m2
05:34 8.2 °C 7.7 °C 993.1 hPa Calm   3.2 km/h 93.2% 0 mm 0 W/m2
05:38 8.2 °C 7.7 °C 993.1 hPa West 0.8 km/h 6.4 km/h 93.5% 0 mm 0 W/m2
05:44 8.2 °C 7.8 °C 993.1 hPa West 0.3 km/h 3.2 km/h 94% 0 mm 0 W/m2
05:49 8.2 °C 7.7 °C 992.8 hPa Calm   3.2 km/h 94% 0 mm 0 W/m2
05:54 8.1 °C 7.7 °C 993.1 hPa Calm   1.6 km/h 94% 0 mm 0 W/m2
05:59 8.1 °C 7.7 °C 993.1 hPa Calm     94% 0 mm 0 W/m2
06:04 8.1 °C 7.7 °C 993.1 hPa West 1.3 km/h 3.2 km/h 94% 0 mm 0 W/m2
06:09 7.9 °C 7.6 °C 992.8 hPa West 1.1 km/h 3.2 km/h 94% 0 mm 0 W/m2
06:14 7.9 °C 7.5 °C 993.1 hPa West 0.3 km/h 3.2 km/h 94% 0 mm 0 W/m2
06:19 7.8 °C 7.4 °C 993.1 hPa West 1.3 km/h 6.4 km/h 94% 0 mm 0 W/m2
06:24 7.8 °C 7.4 °C 993.1 hPa West 2.6 km/h 4.8 km/h 94% 0 mm 0 W/m2
06:29 7.8 °C 7.4 °C 993.5 hPa West 2.7 km/h 4.8 km/h 94% 0 mm 0 W/m2
06:34 7.8 °C 7.4 °C 993.5 hPa West 1.6 km/h 4.8 km/h 94% 0 mm 0 W/m2
06:39 7.7 °C 7.3 °C 993.5 hPa West 1 km/h 4.8 km/h 94% 0 mm 0 W/m2
06:44 7.7 °C 7.3 °C 993.5 hPa West 2.1 km/h 8 km/h 94% 0 mm 0 W/m2
06:49 7.8 °C 7.4 °C 993.5 hPa West 2.9 km/h 6.4 km/h 94% 0 mm 0 W/m2
06:54 7.8 °C 7.4 °C 993.5 hPa West 1.9 km/h 6.4 km/h 94% 0 mm 0 W/m2
06:59 7.8 °C 7.4 °C 993.5 hPa West 3.5 km/h 6.4 km/h 94% 0 mm 0 W/m2
07:04 7.8 °C 7.4 °C 993.1 hPa West 3.4 km/h 6.4 km/h 94% 0 mm 0 W/m2
07:09 7.8 °C 7.4 °C 993.5 hPa West 3.9 km/h 6.4 km/h 94% 0 mm 0 W/m2
07:14 7.9 °C 7.5 °C 993.8 hPa West 2.7 km/h 6.4 km/h 94% 0 mm 0 W/m2
07:19 7.9 °C 7.5 °C 993.8 hPa West 4.2 km/h 11.3 km/h 94% 0 mm 0 W/m2
07:24 8 °C 7.6 °C 993.8 hPa West 6 km/h 11.3 km/h 94% 0 mm 5 W/m2
07:29 8.1 °C 7.7 °C 993.8 hPa West 4.5 km/h 11.3 km/h 93.6% 0 mm 7 W/m2
07:34 8.2 °C 7.6 °C 993.8 hPa West 5.1 km/h 12.9 km/h 93% 0 mm 9 W/m2
07:39 8.3 °C 7.7 °C 994.1 hPa West 4.7 km/h 11.3 km/h 93% 0 mm 14 W/m2
07:44 8.3 °C 7.8 °C 994.1 hPa West 4.5 km/h 11.3 km/h 93% 0 mm 16 W/m2
07:49 8.4 °C 7.8 °C 994.1 hPa West 6 km/h 12.9 km/h 93% 0 mm 19 W/m2
07:54 8.6 °C 7.9 °C 994.1 hPa West 3.5 km/h 11.3 km/h 92.4% 0 mm 23 W/m2
07:59 8.7 °C 7.9 °C 994.5 hPa West 8 km/h 12.9 km/h 92% 0 mm 30 W/m2
08:04 8.7 °C 8 °C 994.8 hPa West 8.2 km/h 14.5 km/h 91.8% 0 mm 37 W/m2
08:09 8.8 °C 7.9 °C 994.8 hPa West 5.1 km/h 11.3 km/h 91% 0 mm 46 W/m2
08:14 8.9 °C 7.9 °C 994.8 hPa West 7.1 km/h 14.5 km/h 90.6% 0 mm 47 W/m2
08:19 9.1 °C 8 °C 994.8 hPa West 5.3 km/h 12.9 km/h 90% 0 mm 49 W/m2
08:24 9.1 °C 7.9 °C 994.8 hPa West 4.5 km/h 11.3 km/h 89.4% 0 mm 62 W/m2
08:29 9.1 °C 7.9 °C 994.8 hPa West 4 km/h 11.3 km/h 89% 0 mm 76 W/m2
08:34 9.2 °C 7.8 °C 994.8 hPa West 4.7 km/h 16.1 km/h 88.4% 0 mm 72 W/m2
08:39 9.2 °C 7.8 °C 995.1 hPa West 4 km/h 11.3 km/h 88% 0 mm 76 W/m2
08:44 9.3 °C 7.9 °C 995.1 hPa West 7.1 km/h 12.9 km/h 88% 0 mm 79 W/m2
08:49 9.3 °C 7.8 °C 995.1 hPa West 7.9 km/h 14.5 km/h 87.8% 0 mm 74 W/m2
08:54 9.3 °C 7.7 °C 995.1 hPa West 6.6 km/h 14.5 km/h 87% 0 mm 77 W/m2
08:59 9.4 °C 7.8 °C 995.1 hPa West 7.7 km/h 14.5 km/h 87% 0 mm 76 W/m2
09:04 9.4 °C 7.8 °C 995.1 hPa West 9.7 km/h 14.5 km/h 87% 0 mm 74 W/m2
09:09 9.5 °C 7.8 °C 995.1 hPa West 4.7 km/h 11.3 km/h 86% 0 mm 65 W/m2
09:14 9.5 °C 7.8 °C 995.5 hPa West 6.9 km/h 14.5 km/h 86% 0 mm 49 W/m2
09:19 9.4 °C 7.8 °C 995.5 hPa West 6.8 km/h 14.5 km/h 86% 0 mm 33 W/m2
09:24 9.4 °C 7.7 °C 995.5 hPa West 4 km/h 12.9 km/h 86% 0 mm 30 W/m2
09:29 9.4 °C 7.7 °C 995.5 hPa West 3.7 km/h 11.3 km/h 86% 0 mm 204 W/m2
09:34 9.6 °C 7.9 °C 995.5 hPa West 8.4 km/h 16.1 km/h 86% 0 mm 214 W/m2
09:39 9.9 °C 8.1 °C 995.5 hPa West 6 km/h 11.3 km/h 85% 0 mm 227 W/m2
09:44 10.3 °C 8.2 °C 995.5 hPa West 7.2 km/h 16.1 km/h 84.2% 0 mm 244 W/m2
09:49 10.7 °C 8.4 °C 995.5 hPa West 10 km/h 14.5 km/h 83.4% 0 mm 258 W/m2
09:54 10.8 °C 8.4 °C 995.8 hPa West 11.6 km/h 17.7 km/h 82.6% 0 mm 274 W/m2
09:59 11.1 °C 8.6 °C 995.8 hPa West 5.6 km/h 17.7 km/h 82% 0 mm 288 W/m2
10:04 11.3 °C 8.8 °C 995.8 hPa WSW 12.6 km/h 22.5 km/h 81.6% 0 mm 299 W/m2
10:09 11.4 °C 8.7 °C 995.8 hPa SW 11.9 km/h 25.7 km/h 80.6% 0 mm 313 W/m2
10:14 11.7 °C 8.9 °C 995.8 hPa SW 8.5 km/h 20.9 km/h 80% 0 mm 327 W/m2
10:19 11.9 °C 8.9 °C 995.8 hPa SW 12.6 km/h 24.1 km/h 79.6% 0 mm 341 W/m2
10:24 12.1 °C 9.1 °C 995.8 hPa SW 10.3 km/h 25.7 km/h 79.2% 0 mm 353 W/m2
10:29 12.2 °C 9.2 °C 996.2 hPa WSW 12.2 km/h 20.9 km/h 79% 0 mm 366 W/m2
10:34 12.2 °C 9.2 °C 996.2 hPa WSW 12.6 km/h 24.1 km/h 79% 0 mm 378 W/m2
10:39 12.4 °C 9.3 °C 996.2 hPa WSW 14 km/h 24.1 km/h 79% 0 mm 394 W/m2
10:44 12.6 °C 9.4 °C 996.2 hPa WSW 10.6 km/h 24.1 km/h 79% 0 mm 427 W/m2
10:49 12.8 °C 9.7 °C 996.5 hPa WSW 9.3 km/h 20.9 km/h 79% 0 mm 475 W/m2
10:54 12.9 °C 9.7 °C 996.5 hPa WSW 15.1 km/h 27.4 km/h 78.2% 0 mm 367 W/m2
10:59 12.8 °C 9.5 °C 996.5 hPa SW 16.7 km/h 25.7 km/h 78% 0 mm 441 W/m2
11:04 13 °C 9.8 °C 996.5 hPa SW 11.3 km/h 24.1 km/h 78.6% 0 mm 473 W/m2
11:09 13.3 °C 9.9 °C 996.5 hPa SW 16.4 km/h 29 km/h 78% 0 mm 585 W/m2
11:14 13.4 °C 10 °C 996.8 hPa WSW 12.2 km/h 29 km/h 77.6% 0 mm 686 W/m2
11:19 13.6 °C 10.1 °C 996.8 hPa SW 15.1 km/h 27.4 km/h 77.4% 0 mm 719 W/m2
11:24 13.6 °C 10.3 °C 996.8 hPa WSW 14.8 km/h 25.7 km/h 78% 0 mm 719 W/m2
11:29 13.8 °C 10.4 °C 996.8 hPa SW 8.9 km/h 24.1 km/h 77.4% 0 mm 763 W/m2
11:34 14.1 °C 10.4 °C 996.8 hPa WSW 16.3 km/h 33.8 km/h 76.2% 0 mm 763 W/m2
11:39 13.8 °C 10.4 °C 996.8 hPa WSW 11.4 km/h 27.4 km/h 77.6% 0.25 mm 132 W/m2
11:44 13.2 °C 10.2 °C 996.8 hPa WSW 13.2 km/h 25.7 km/h 79.4% 0.25 mm 127 W/m2
11:49 12.9 °C 10.2 °C 996.8 hPa WSW 9.7 km/h 17.7 km/h 80.8% 0.25 mm 153 W/m2
11:54 12.9 °C 10.4 °C 997.2 hPa WSW 10.9 km/h 22.5 km/h 82% 0.25 mm 343 W/m2
11:59 13 °C 10.3 °C 997.2 hPa WSW 12.2 km/h 22.5 km/h 81% 0.25 mm 591 W/m2
12:04 13.3 °C 10.5 °C 997.2 hPa SW 14.8 km/h 25.7 km/h 80.4% 0.25 mm 591 W/m2
12:09 13.7 °C 10.6 °C 997.2 hPa SW 13.2 km/h 24.1 km/h 79.2% 0.25 mm 543 W/m2
12:14 13.8 °C 10.3 °C 997.2 hPa West 13.5 km/h 33.8 km/h 77.2% 0.25 mm 550 W/m2
12:19 14.1 °C 10.6 °C 997.2 hPa West 12.1 km/h 29 km/h 76.8% 0.25 mm 598 W/m2
12:24 14.3 °C 10.4 °C 997.2 hPa WSW 14.5 km/h 24.1 km/h 75.2% 0.25 mm 670 W/m2
12:29 14.4 °C 10.4 °C 997.2 hPa WSW 15.9 km/h 32.2 km/h 74.8% 0.25 mm 728 W/m2
12:34 14.7 °C 10.6 °C 997.5 hPa SW 13.8 km/h 33.8 km/h 74% 0.25 mm 334 W/m2
12:39 14.5 °C 10.3 °C 997.5 hPa SW 13.2 km/h 33.8 km/h 73.4% 0.25 mm 533 W/m2
12:44 14.4 °C 10.2 °C 997.5 hPa West 15.4 km/h 29 km/h 73% 0 mm 598 W/m2
12:49 14.5 °C 10.2 °C 997.5 hPa WSW 19 km/h 33.8 km/h 73% 0 mm 497 W/m2
12:54 14.2 °C 10 °C 997.9 hPa West 16.6 km/h 32.2 km/h 73.6% 0 mm 294 W/m2
12:59 14.3 °C 10.4 °C 997.9 hPa WSW 15.8 km/h 30.6 km/h 75.2% 0 mm 492 W/m2
13:04 14.3 °C 10.2 °C 997.9 hPa WSW 17.1 km/h 30.6 km/h 74% 0 mm 206 W/m2
13:09 14.3 °C 10.2 °C 997.9 hPa West 16.7 km/h 29 km/h 74% 0 mm 142 W/m2
13:14 14.2 °C 10.1 °C 997.9 hPa WSW 15.9 km/h 29 km/h 74.2% 0 mm 107 W/m2
13:19 14 °C 10.1 °C 997.9 hPa WSW 13.2 km/h 29 km/h 75.2% 0 mm 113 W/m2
13:24 13.8 °C 10.1 °C 998.2 hPa WSW 11.9 km/h 24.1 km/h 76% 0 mm 72 W/m2
13:29 13.6 °C 10 °C 998.2 hPa WSW 16.1 km/h 30.6 km/h 76.8% 0 mm 51 W/m2
13:34 13.2 °C 10 °C 998.5 hPa West 9.5 km/h 25.7 km/h 78.6% 0 mm 62 W/m2
13:39 13 °C 10.1 °C 998.5 hPa West 10.9 km/h 20.9 km/h 80% 0 mm 72 W/m2
13:44 12.9 °C 10.3 °C 998.5 hPa WSW 4.5 km/h 19.3 km/h 81.4% 0.25 mm 70 W/m2
13:49 12.8 °C 10.3 °C 998.5 hPa WSW 8 km/h 14.5 km/h 82.2% 0.51 mm 83 W/m2
13:54 12.7 °C 10.4 °C 998.5 hPa West 6.6 km/h 14.5 km/h 83.2% 0.51 mm 265 W/m2
13:59 12.8 °C 10.7 °C 998.5 hPa West 15.4 km/h 25.7 km/h 84% 0.51 mm 657 W/m2
14:04 13.2 °C 11.1 °C 998.5 hPa West 8.2 km/h 19.3 km/h 84.2% 0.51 mm 789 W/m2
14:09 13.7 °C 11.6 °C 998.5 hPa West 11.6 km/h 20.9 km/h 84.6% 0.51 mm 823 W/m2
14:14 13.6 °C 11.3 °C 998.9 hPa West 9.8 km/h 22.5 km/h 83.6% 0.51 mm 248 W/m2
14:19 13.4 °C 11.1 °C 998.9 hPa West 11.3 km/h 17.7 km/h 83.2% 0.51 mm 369 W/m2
14:24 13.5 °C 11.3 °C 998.9 hPa West 11.6 km/h 22.5 km/h 83.5% 0.51 mm 780 W/m2
14:29 13.8 °C 11.5 °C 998.9 hPa West 13.2 km/h 22.5 km/h 83.4% 0.51 mm 387 W/m2
14:34 14.1 °C 11.7 °C 998.9 hPa West 13.8 km/h 29 km/h 83% 0.51 mm 346 W/m2
14:39 13.9 °C 11.4 °C 999.2 hPa WSW 13.5 km/h 29 km/h 82% 0.51 mm 272 W/m2
14:44 13.8 °C 11.1 °C 999.2 hPa WSW 14.6 km/h 27.4 km/h 81% 0.51 mm 420 W/m2
14:49 14 °C 11.3 °C 999.2 hPa SW 11.9 km/h 24.1 km/h 81% 0.51 mm 469 W/m2
14:54 14.1 °C 11.4 °C 999.2 hPa West 14.5 km/h 24.1 km/h 81% 0.25 mm 475 W/m2
14:59 14.2 °C 11.6 °C 999.5 hPa WSW 10.5 km/h 19.3 km/h 81.6% 0 mm 366 W/m2
15:04 13.9 °C 11.3 °C 999.5 hPa SW 12.9 km/h 30.6 km/h 81.6% 0.25 mm 98 W/m2
15:09 13.7 °C 10.9 °C 999.5 hPa WSW 16.1 km/h 32.2 km/h 81% 0.25 mm 125 W/m2
15:14 13.6 °C 11 °C 999.5 hPa West 8.4 km/h 17.7 km/h 81.4% 0.25 mm 251 W/m2
15:19 13.7 °C 11.2 °C 999.5 hPa WSW 7.7 km/h 14.5 km/h 82.2% 0.25 mm 306 W/m2
15:24 13.8 °C 11.3 °C 999.5 hPa WSW 10.6 km/h 24.1 km/h 82% 0.25 mm 279 W/m2
15:29 13.8 °C 11.2 °C 999.9 hPa WSW 12.9 km/h 27.4 km/h 81.4% 0.25 mm 167 W/m2
15:34 13.8 °C 11.2 °C 999.5 hPa WSW 13.5 km/h 27.4 km/h 81.6% 0.25 mm 229 W/m2
15:39 13.8 °C 11.3 °C 999.9 hPa WSW 11.9 km/h 24.1 km/h 82% 0.25 mm 318 W/m2
15:44 13.9 °C 11.4 °C 999.9 hPa SW 20.6 km/h 30.6 km/h 82% 0.51 mm 302 W/m2
15:49 13.7 °C 11.3 °C 1000.2 hPa WSW 15.8 km/h 32.2 km/h 82.4% 0.51 mm 200 W/m2
15:54 13.6 °C 11.3 °C 1000.2 hPa WSW 13.7 km/h 27.4 km/h 83% 0.51 mm 72 W/m2
15:59 13.3 °C 11.1 °C 1000.2 hPa WSW 17.7 km/h 30.6 km/h 83.6% 0.76 mm 86 W/m2
16:04 13 °C 11 °C 1000.6 hPa SW 12.6 km/h 24.1 km/h 84.8% 0.76 mm 232 W/m2
16:09 13.1 °C 11.3 °C 1000.6 hPa West 17.4 km/h 30.6 km/h 85.8% 0.51 mm 468 W/m2
16:14 13.3 °C 11.5 °C 1000.6 hPa West 10.8 km/h 30.6 km/h 86% 0.51 mm 452 W/m2
16:19 13.6 °C 11.8 °C 1000.6 hPa WSW 14.2 km/h 20.9 km/h 86% 0.51 mm 387 W/m2
16:24 13.7 °C 11.7 °C 1000.6 hPa WSW 14.2 km/h 20.9 km/h 85% 0.51 mm 322 W/m2
16:29 13.8 °C 11.7 °C 1000.6 hPa WSW 15.8 km/h 30.6 km/h 84.4% 0.51 mm 357 W/m2
16:34 13.8 °C 11.5 °C 1000.6 hPa WSW 12.6 km/h 29 km/h 83.2% 0.51 mm 369 W/m2
16:39 13.7 °C 11.3 °C 1000.6 hPa SW 11.9 km/h 24.1 km/h 82.4% 0.51 mm 330 W/m2
16:44 13.8 °C 11.3 °C 1000.9 hPa WSW 10.3 km/h 19.3 km/h 82.2% 0.51 mm 260 W/m2
16:49 13.9 °C 11.6 °C 1000.9 hPa WSW 6.4 km/h 14.5 km/h 83% 0.51 mm 258 W/m2
16:54 14 °C 11.5 °C 1001.2 hPa West 9.7 km/h 19.3 km/h 82% 0.25 mm 239 W/m2
16:59 14.1 °C 11.5 °C 1001.2 hPa WSW 11.6 km/h 20.9 km/h 81.4% 0.25 mm 230 W/m2
17:04 14.1 °C 11.4 °C 1001.2 hPa WSW 8.4 km/h 19.3 km/h 81% 0 mm 207 W/m2
17:09 14 °C 11.3 °C 1001.2 hPa WSW 8.7 km/h 14.5 km/h 81% 0 mm 91 W/m2
17:14 13.8 °C 11.1 °C 1001.6 hPa SW 11.3 km/h 20.9 km/h 81% 0 mm 42 W/m2
17:18 13.7 °C 10.9 °C 1001.6 hPa WSW 12.4 km/h 24.1 km/h 81% 0 mm 227 W/m2
17:24 13.6 °C 10.9 °C 1001.6 hPa WSW 14.8 km/h 22.5 km/h 81.2% 0 mm 179 W/m2
17:29 13.4 °C 10.9 °C 1001.6 hPa WSW 9.2 km/h 22.5 km/h 82% 0 mm 102 W/m2
17:34 13.3 °C 11 °C 1001.9 hPa WSW 6.8 km/h 16.1 km/h 82.8% 0 mm 181 W/m2
17:39 13.4 °C 11.1 °C 1001.9 hPa West 7.1 km/h 19.3 km/h 83% 0 mm 178 W/m2
17:44 13.6 °C 11.3 °C 1001.9 hPa WSW 7.9 km/h 19.3 km/h 83% 0 mm 111 W/m2
17:49 13.7 °C 11.3 °C 1001.9 hPa WSW 10 km/h 19.3 km/h 82.8% 0 mm 114 W/m2
17:54 13.7 °C 11.2 °C 1002.3 hPa WSW 11.3 km/h 19.3 km/h 82% 0 mm 93 W/m2
17:59 13.7 °C 11.2 °C 1002.3 hPa WSW 8.9 km/h 19.3 km/h 82% 0 mm 63 W/m2
18:04 13.7 °C 11.2 °C 1002.3 hPa SW 10.1 km/h 17.7 km/h 82% 0 mm 54 W/m2
18:09 13.6 °C 11.1 °C 1002.3 hPa WSW 8.7 km/h 20.9 km/h 82% 0 mm 54 W/m2
18:14 13.4 °C 10.9 °C 1002.6 hPa WSW 8.9 km/h 17.7 km/h 82% 0 mm 28 W/m2
18:19 13.3 °C 10.8 °C 1002.6 hPa SW 9.7 km/h 16.1 km/h 82% 0 mm 25 W/m2
18:24 13.3 °C 10.8 °C 1002.9 hPa WSW 8 km/h 17.7 km/h 82% 0 mm 30 W/m2
18:29 13.2 °C 10.8 °C 1002.9 hPa SW 8.9 km/h 14.5 km/h 82.8% 0 mm 30 W/m2
18:34 13.1 °C 10.8 °C 1002.9 hPa SW 7.9 km/h 16.1 km/h 83% 0 mm 12 W/m2
18:39 12.9 °C 10.8 °C 1002.9 hPa SW 6.3 km/h 14.5 km/h 83.8% 0 mm 7 W/m2
18:44 12.9 °C 10.8 °C 1003.3 hPa SW 5 km/h 9.7 km/h 84% 0 mm 5 W/m2
18:49 12.8 °C 10.7 °C 1003.3 hPa SW 6.3 km/h 14.5 km/h 84.2% 0 mm 0 W/m2
18:54 12.7 °C 10.7 °C 1003.3 hPa SW 6.3 km/h 14.5 km/h 85% 0 mm 0 W/m2
18:59 12.6 °C 10.7 °C 1003.3 hPa SW 7.9 km/h 14.5 km/h 85.6% 0 mm 0 W/m2
19:04 12.6 °C 10.8 °C 1003.6 hPa SW 6 km/h 12.9 km/h 86% 0 mm 0 W/m2
19:09 12.5 °C 10.7 °C 1003.6 hPa SW 6.4 km/h 11.3 km/h 86% 0 mm 0 W/m2
19:14 12.4 °C 10.6 °C 1003.6 hPa SW 6.6 km/h 12.9 km/h 86% 0 mm 0 W/m2
19:19 12.3 °C 10.5 °C 1003.6 hPa SW 6.1 km/h 14.5 km/h 86% 0 mm 0 W/m2
19:24 12.3 °C 10.6 °C 1003.9 hPa SW 5.3 km/h 16.1 km/h 86.4% 0 mm 0 W/m2
19:29 12.2 °C 10.6 °C 1003.9 hPa WSW 3.5 km/h 9.7 km/h 86.6% 0 mm 0 W/m2
19:34 12.2 °C 10.4 °C 1003.9 hPa WSW 7.7 km/h 11.3 km/h 86% 0 mm 0 W/m2
19:39 12.2 °C 10.4 °C 1003.9 hPa WSW 6 km/h 14.5 km/h 86% 0 mm 0 W/m2
19:44 12.2 °C 10.4 °C 1003.9 hPa SW 6.4 km/h 14.5 km/h 86% 0 mm 0 W/m2
19:49 12.2 °C 10.4 °C 1003.9 hPa SW 4.7 km/h 14.5 km/h 86% 0 mm 0 W/m2
19:54 12.1 °C 10.3 °C 1004.3 hPa SW 7.1 km/h 11.3 km/h 86% 0 mm 0 W/m2
19:59 12.1 °C 10.3 °C 1004.3 hPa SW 6.8 km/h 11.3 km/h 86% 0 mm 0 W/m2
20:04 12.1 °C 10.3 °C 1004.3 hPa SW 9 km/h 12.9 km/h 86% 0 mm 0 W/m2
20:09 12 °C 10.2 °C 1004.6 hPa SW 4.8 km/h 11.3 km/h 86% 0 mm 0 W/m2
20:14 11.9 °C 10.3 °C 1004.6 hPa SW 4.5 km/h 11.3 km/h 87% 0 mm 0 W/m2
20:19 11.9 °C 10.2 °C 1004.6 hPa SW 6 km/h 11.3 km/h 86.8% 0 mm 0 W/m2
20:24 11.8 °C 10.2 °C 1004.6 hPa SW 8.7 km/h 12.9 km/h 87% 0 mm 0 W/m2
20:29 11.8 °C 10.2 °C 1004.6 hPa SW 6 km/h 11.3 km/h 86.8% 0 mm 0 W/m2
20:34 11.8 °C 10.2 °C 1004.6 hPa SW 3.2 km/h 11.3 km/h 86.8% 0 mm 0 W/m2
20:39 11.8 °C 10.1 °C 1005 hPa SW 4.5 km/h 11.3 km/h 86.4% 0 mm 0 W/m2
20:44 11.7 °C 9.9 °C 1005 hPa SW 4.5 km/h 6.4 km/h 86% 0 mm 0 W/m2
20:49 11.7 °C 9.9 °C 1005 hPa SW 4 km/h 11.3 km/h 86% 0 mm 0 W/m2
20:54 11.7 °C 9.9 °C 1005 hPa SW 4 km/h 9.7 km/h 86% 0 mm 0 W/m2
20:59 11.6 °C 10 °C 1005 hPa SW 5.6 km/h 12.9 km/h 87% 0 mm 0 W/m2
21:04 11.6 °C 10 °C 1005.3 hPa SW 6.1 km/h 12.9 km/h 87% 0 mm 0 W/m2
21:09 11.6 °C 10 °C 1005.3 hPa SW 6 km/h 14.5 km/h 87% 0 mm 0 W/m2
21:14 11.6 °C 10 °C 1005.3 hPa SW 5.8 km/h 16.1 km/h 87% 0 mm 0 W/m2
21:19 11.6 °C 9.9 °C 1005.3 hPa SW 5.6 km/h 14.5 km/h 87% 0 mm 0 W/m2
21:24 11.5 °C 9.9 °C 1005.3 hPa SW 4.5 km/h 9.7 km/h 87% 0 mm 0 W/m2
21:29 11.4 °C 9.8 °C 1005.3 hPa SW 7.1 km/h 12.9 km/h 87% 0 mm 0 W/m2
21:34 11.4 °C 9.8 °C 1005.6 hPa SW 5.8 km/h 9.7 km/h 87% 0 mm 0 W/m2
21:39 11.4 °C 9.8 °C 1005.6 hPa SW 3.7 km/h 14.5 km/h 87% 0 mm 0 W/m2
21:44 11.4 °C 9.8 °C 1005.6 hPa SW 6 km/h 11.3 km/h 87% 0 mm 0 W/m2
21:49 11.4 °C 9.8 °C 1005.6 hPa SW 5.8 km/h 11.3 km/h 87% 0 mm 0 W/m2
21:54 11.4 °C 9.8 °C 1005.6 hPa SW 5.3 km/h 11.3 km/h 87% 0 mm 0 W/m2
21:59 11.3 °C 9.7 °C 1005.6 hPa SW 5.1 km/h 11.3 km/h 87% 0 mm 0 W/m2
22:04 11.2 °C 9.7 °C 1005.6 hPa SW 4.2 km/h 12.9 km/h 87% 0 mm 0 W/m2
22:09 11.2 °C 9.6 °C 1005.6 hPa SW 5.8 km/h 16.1 km/h 87% 0 mm 0 W/m2
22:14 11.2 °C 9.6 °C 1005.6 hPa SW 6 km/h 16.1 km/h 87% 0 mm 0 W/m2
22:19 11.2 °C 9.6 °C 1005.6 hPa SW 5.1 km/h 9.7 km/h 87% 0 mm 0 W/m2
22:24 11.2 °C 9.6 °C 1005.6 hPa SW 1.8 km/h 6.4 km/h 87% 0 mm 0 W/m2
22:29 11.1 °C 9.5 °C 1005.6 hPa SW 4.2 km/h 9.7 km/h 87% 0 mm 0 W/m2
22:34 11.1 °C 9.5 °C 1005.6 hPa SW 3.9 km/h 9.7 km/h 87% 0 mm 0 W/m2
22:39 11.1 °C 9.5 °C 1005.6 hPa SW 5 km/h 11.3 km/h 87% 0 mm 0 W/m2
22:44 11 °C 9.4 °C 1006 hPa SW 2.7 km/h 9.7 km/h 87% 0 mm 0 W/m2
22:49 11 °C 9.4 °C 1006 hPa SW 3.2 km/h 6.4 km/h 87% 0 mm 0 W/m2
22:54 11 °C 9.4 °C 1006.3 hPa SW 1.6 km/h 6.4 km/h 87% 0 mm 0 W/m2
22:59 10.9 °C 9.3 °C 1006.3 hPa SW 0.6 km/h 3.2 km/h 87% 0 mm 0 W/m2
23:04 10.9 °C 9.3 °C 1006.3 hPa SW 0.6 km/h 3.2 km/h 87% 0 mm 0 W/m2
23:09 10.9 °C 9.3 °C 1006.3 hPa SW 2.3 km/h 8 km/h 87% 0 mm 0 W/m2
23:14 11 °C 9.4 °C 1006.3 hPa SW 2.6 km/h 6.4 km/h 87% 0 mm 0 W/m2
23:19 10.9 °C 9.3 °C 1006.3 hPa SW 1.3 km/h 4.8 km/h 86.6% 0 mm 0 W/m2
23:24 10.8 °C 9.2 °C 1006.3 hPa SW 3.5 km/h 11.3 km/h 87% 0 mm 0 W/m2
23:29 10.8 °C 9.2 °C 1006.3 hPa SW 0.3 km/h 3.2 km/h 87% 0 mm 0 W/m2
23:34 10.7 °C 9.1 °C 1006.3 hPa SW 1.4 km/h 4.8 km/h 87% 0 mm 0 W/m2
23:39 10.6 °C 8.9 °C 1006.3 hPa SW 3.2 km/h 6.4 km/h 87% 0 mm 0 W/m2
23:44 10.4 °C 8.8 °C 1006.3 hPa SW 2.6 km/h 6.4 km/h 87% 0 mm 0 W/m2
23:49 10.3 °C 8.7 °C 1006.3 hPa SW 4 km/h 6.4 km/h 87% 0 mm 0 W/m2
23:54 10.2 °C 8.8 °C 1006.3 hPa SW 3.1 km/h 8 km/h 88% 0 mm 0 W/m2
23:59 10.2 °C 8.8 °C 1006.3 hPa SW 1.4 km/h 4.8 km/h 88% 0 mm 0 W/m2
Bath Spa Weather
Compliments of Weather Underground - 2 mb